Time;durP1;ratioP1;P1;durP2;ratioP2;P2;SDS_P1;SDS_P2;PMS_P1;PMS_P2;Temp;Humidity;BMP_temperature;BMP_pressure;BME280_temperature;BME280_humidity;BME280_pressure;Samples;Min_cycle;Max_cycle;Signal;HPM_P1;HPM_P2
2021/03/13 00:01:11;;;;;;;36.28;7.90;;;5.20;98.40;;;;;;5018113;28;20050;-79
2021/03/13 00:03:37;;;;;;;23.92;6.90;;;5.20;98.10;;;;;;5024587;28;20071;-79
2021/03/13 00:06:03;;;;;;;31.38;7.28;;;5.20;98.00;;;;;;5028235;28;20044;-79
2021/03/13 00:08:29;;;;;;;37.40;7.43;;;5.10;98.00;;;;;;5033684;28;20037;-78
2021/03/13 00:10:55;;;;;;;27.92;7.15;;;5.10;97.90;;;;;;5027359;28;20061;-78
2021/03/13 00:13:21;;;;;;;24.58;6.20;;;5.10;97.90;;;;;;5022005;28;20057;-78
2021/03/13 00:15:47;;;;;;;21.77;5.85;;;5.10;97.90;;;;;;5028505;28;20052;-78
2021/03/13 00:18:14;;;;;;;27.65;7.35;;;5.10;97.90;;;;;;5026903;28;20063;-78
2021/03/13 00:20:42;;;;;;;24.00;5.95;;;5.00;97.90;;;;;;5013614;28;20508;-78
2021/03/13 00:23:07;;;;;;;19.95;6.95;;;5.00;97.90;;;;;;5025372;28;20042;-78
2021/03/13 00:25:35;;;;;;;25.02;5.60;;;5.00;97.90;;;;;;5025463;28;20095;-78
2021/03/13 00:28:01;;;;;;;22.08;6.20;;;5.00;97.90;;;;;;5014876;28;20084;-78
2021/03/13 00:30:29;;;;;;;28.80;6.38;;;5.00;97.90;;;;;;5020766;28;20041;-78
2021/03/13 00:33:03;;;;;;;21.55;7.47;;;5.00;97.90;;;;;;5026080;28;20171;-78
2021/03/13 00:35:31;;;;;;;26.20;6.45;;;5.00;97.90;;;;;;5033545;28;20034;-78
2021/03/13 00:37:58;;;;;;;22.58;5.60;;;5.00;97.90;;;;;;5025873;28;20056;-78
2021/03/13 00:40:27;;;;;;;25.30;6.15;;;4.90;97.90;;;;;;5026598;28;20636;-78
2021/03/13 00:42:54;;;;;;;25.60;6.50;;;4.90;97.90;;;;;;5035551;28;20041;-78
2021/03/13 00:45:23;;;;;;;24.00;6.53;;;5.00;97.90;;;;;;5029338;28;20040;-78
2021/03/13 00:47:49;;;;;;;33.45;6.45;;;5.00;97.80;;;;;;5024723;28;20057;-78
2021/03/13 00:50:17;;;;;;;30.27;6.65;;;4.90;97.90;;;;;;5025951;28;20069;-78
2021/03/13 00:52:43;;;;;;;19.08;6.43;;;4.90;97.90;;;;;;5025004;28;20111;-79
2021/03/13 00:55:11;;;;;;;31.63;7.40;;;4.80;98.00;;;;;;5014781;28;20077;-79
2021/03/13 00:57:37;;;;;;;27.08;8.23;;;4.80;98.10;;;;;;5020090;28;20046;-79
2021/03/13 01:00:09;;;;;;;20.75;6.78;;;4.80;98.10;;;;;;5018274;28;20044;-79
2021/03/13 01:02:35;;;;;;;24.60;7.00;;;4.80;98.20;;;;;;5020226;28;20429;-79
2021/03/13 01:05:01;;;;;;;21.70;6.93;;;4.90;98.30;;;;;;5016677;28;20038;-79
2021/03/13 01:07:27;;;;;;;21.38;6.65;;;4.90;98.20;;;;;;5027405;28;20609;-79
2021/03/13 01:09:52;;;;;;;31.55;7.80;;;4.90;98.20;;;;;;5015066;28;20045;-78
2021/03/13 01:12:18;;;;;;;21.25;8.40;;;5.00;98.20;;;;;;5041081;28;20037;-79
2021/03/13 01:14:44;;;;;;;26.95;8.00;;;5.10;98.40;;;;;;5025384;28;20033;-79
2021/03/13 01:17:10;;;;;;;26.40;7.97;;;5.00;98.30;;;;;;5027669;28;20049;-78
2021/03/13 01:19:36;;;;;;;22.38;7.60;;;5.10;98.40;;;;;;5024488;28;20087;-78
2021/03/13 01:22:02;;;;;;;30.85;8.30;;;5.10;98.30;;;;;;5021229;28;20145;-78
2021/03/13 01:24:28;;;;;;;27.08;8.82;;;5.10;98.40;;;;;;5010889;28;20359;-78
2021/03/13 01:26:53;;;;;;;24.20;7.97;;;5.20;98.30;;;;;;5018132;28;20050;-78
2021/03/13 01:29:19;;;;;;;23.63;7.72;;;5.30;98.30;;;;;;5016191;28;20037;-79
2021/03/13 01:31:45;;;;;;;26.83;8.45;;;5.40;98.10;;;;;;5023502;28;20058;-79
2021/03/13 01:34:11;;;;;;;24.70;7.80;;;5.40;98.00;;;;;;5013870;28;20481;-79
2021/03/13 01:36:37;;;;;;;26.40;8.80;;;5.40;98.10;;;;;;5015515;28;20677;-79
2021/03/13 01:39:06;;;;;;;23.63;7.85;;;5.50;98.00;;;;;;5015865;28;20112;-79
2021/03/13 01:41:32;;;;;;;21.85;7.95;;;5.50;98.30;;;;;;5021893;28;20068;-78
2021/03/13 01:43:58;;;;;;;28.83;7.97;;;5.50;98.10;;;;;;5029006;28;20029;-78
2021/03/13 01:46:24;;;;;;;20.63;7.72;;;5.50;97.80;;;;;;5022208;28;20103;-78
2021/03/13 01:48:51;;;;;;;21.80;7.10;;;5.50;97.80;;;;;;5027481;28;20409;-78
2021/03/13 01:51:18;;;;;;;20.52;6.63;;;5.50;97.80;;;;;;5019630;28;20037;-78
2021/03/13 01:53:50;;;;;;;26.13;7.40;;;5.50;97.80;;;;;;5022807;28;20049;-78
2021/03/13 01:56:17;;;;;;;23.58;7.15;;;5.40;97.80;;;;;;5023702;28;20033;-78
2021/03/13 01:58:43;;;;;;;27.23;7.75;;;5.50;97.80;;;;;;5034303;28;20120;-78
2021/03/13 02:01:10;;;;;;;25.38;6.97;;;5.50;97.80;;;;;;5020268;28;20052;-78
2021/03/13 02:03:39;;;;;;;19.38;6.65;;;5.60;97.90;;;;;;5018642;28;20029;-78
2021/03/13 02:06:05;;;;;;;28.02;7.38;;;5.60;97.70;;;;;;5037791;28;20119;-78
2021/03/13 02:09:03;;;;;;;20.48;7.35;;;5.70;97.80;;;;;;5036284;28;20057;-78
2021/03/13 02:12:04;;;;;;;23.42;6.30;;;5.70;97.30;;;;;;5017913;28;20037;-78
2021/03/13 02:15:11;;;;;;;23.30;7.45;;;5.80;97.30;;;;;;5005418;28;20086;-78
2021/03/13 02:17:37;;;;;;;24.45;6.90;;;5.80;97.40;;;;;;5021806;28;20042;-78
2021/03/13 02:20:39;;;;;;;17.02;5.78;;;5.80;97.50;;;;;;5020576;28;20041;-78
2021/03/13 02:23:07;;;;;;;22.92;6.78;;;5.80;97.30;;;;;;5024865;28;20511;-78
2021/03/13 02:25:50;;;;;;;23.85;7.03;;;5.80;97.50;;;;;;5025690;28;20402;-78
2021/03/13 02:28:38;;;;;;;23.30;6.30;;;5.80;97.40;;;;;;5020494;28;20057;-78
2021/03/13 02:31:09;;;;;;;18.83;6.20;;;5.80;97.00;;;;;;5018220;28;20563;-78
2021/03/13 02:33:39;;;;;;;17.08;6.22;;;5.80;97.20;;;;;;5016963;28;20053;-78
2021/03/13 02:36:15;;;;;;;21.38;5.07;;;5.90;97.10;;;;;;5026511;28;20037;-78
2021/03/13 02:38:53;;;;;;;20.63;6.20;;;5.90;96.80;;;;;;5021622;28;20055;-78
2021/03/13 02:41:34;;;;;;;20.52;6.15;;;5.90;97.00;;;;;;5013555;28;20185;-78
2021/03/13 02:44:04;;;;;;;18.88;5.18;;;5.90;97.10;;;;;;5017071;28;20037;-78
2021/03/13 02:46:32;;;;;;;18.98;4.80;;;6.00;97.20;;;;;;5022376;28;20030;-78
2021/03/13 02:48:59;;;;;;;17.40;5.70;;;6.00;97.10;;;;;;5028499;28;20049;-78
2021/03/13 02:51:27;;;;;;;20.88;5.60;;;6.00;97.00;;;;;;5046060;28;20057;-78
2021/03/13 02:53:55;;;;;;;21.38;6.03;;;6.00;97.10;;;;;;5028398;28;20455;-78
2021/03/13 02:56:23;;;;;;;24.00;7.18;;;6.00;97.20;;;;;;5015357;28;20042;-78
2021/03/13 02:58:52;;;;;;;18.52;6.45;;;5.90;97.40;;;;;;5025609;28;20037;-78
2021/03/13 03:01:20;;;;;;;21.13;6.15;;;5.90;97.70;;;;;;5029706;28;20050;-78
2021/03/13 03:03:48;;;;;;;22.60;6.53;;;5.90;97.80;;;;;;5018016;28;20033;-78
2021/03/13 03:06:17;;;;;;;19.52;7.00;;;5.90;97.90;;;;;;5022698;28;20037;-78
2021/03/13 03:08:43;;;;;;;14.82;5.25;;;5.80;98.20;;;;;;5018635;28;20125;-78
2021/03/13 03:11:10;;;;;;;20.05;6.30;;;5.70;98.20;;;;;;5025732;28;20050;-78
2021/03/13 03:13:36;;;;;;;16.38;5.55;;;5.70;98.30;;;;;;5014710;28;20159;-77
2021/03/13 03:16:06;;;;;;;11.07;4.07;;;5.70;98.40;;;;;;5022027;28;20054;-78
2021/03/13 03:18:34;;;;;;;13.88;5.07;;;5.70;98.20;;;;;;5019579;28;20137;-79
2021/03/13 03:21:02;;;;;;;13.18;4.82;;;5.70;98.50;;;;;;5029260;28;20072;-79
2021/03/13 03:23:28;;;;;;;12.75;5.47;;;5.70;98.50;;;;;;5028365;28;20033;-79
2021/03/13 03:25:55;;;;;;;13.90;4.97;;;5.70;98.60;;;;;;5028145;28;20049;-79
2021/03/13 03:28:21;;;;;;;13.38;4.97;;;5.70;98.60;;;;;;5024059;28;20081;-79
2021/03/13 03:30:49;;;;;;;11.32;4.45;;;5.70;98.70;;;;;;5022112;28;20084;-79
2021/03/13 03:33:15;;;;;;;12.25;5.10;;;5.70;98.70;;;;;;5046213;28;20433;-79
2021/03/13 03:35:42;;;;;;;9.90;4.13;;;5.70;98.70;;;;;;5027658;28;20045;-79
2021/03/13 03:38:10;;;;;;;11.90;5.07;;;5.70;98.70;;;;;;5018024;28;20454;-79
2021/03/13 03:40:36;;;;;;;8.05;4.00;;;5.60;98.70;;;;;;5024918;28;20034;-79
2021/03/13 03:43:17;;;;;;;7.32;3.88;;;5.60;98.80;;;;;;5028806;28;20600;-79
2021/03/13 03:45:46;;;;;;;8.07;3.65;;;5.60;98.90;;;;;;5023294;28;20564;-79
2021/03/13 03:48:14;;;;;;;10.18;4.10;;;5.60;98.90;;;;;;5017917;28;20144;-79
2021/03/13 03:50:43;;;;;;;7.70;3.72;;;5.60;99.10;;;;;;5021483;28;20140;-79
2021/03/13 03:53:19;;;;;;;9.50;3.95;;;5.50;99.10;;;;;;5016834;28;20516;-79
2021/03/13 03:55:48;;;;;;;7.53;4.15;;;5.50;99.20;;;;;;5030846;28;20102;-79
2021/03/13 03:58:39;;;;;;;6.30;3.05;;;5.50;99.20;;;;;;5020484;28;20060;-79
2021/03/13 04:01:07;;;;;;;6.90;3.20;;;5.40;99.00;;;;;;5021226;28;20065;-79
2021/03/13 04:03:35;;;;;;;6.53;2.63;;;5.50;99.10;;;;;;5031971;28;20452;-79
2021/03/13 04:06:01;;;;;;;6.82;2.95;;;5.40;99.20;;;;;;5023462;28;20041;-79
2021/03/13 04:08:29;;;;;;;5.60;2.30;;;5.40;99.60;;;;;;5034513;28;20045;-79
2021/03/13 04:10:56;;;;;;;8.85;2.95;;;5.40;99.10;;;;;;5031201;28;20404;-79
2021/03/13 04:13:23;;;;;;;4.45;2.50;;;5.40;99.20;;;;;;5024908;28;20056;-79
2021/03/13 04:15:50;;;;;;;5.50;2.90;;;5.30;99.10;;;;;;5017115;28;20045;-79
2021/03/13 04:18:17;;;;;;;7.65;3.38;;;5.30;99.30;;;;;;5025583;28;20045;-79
2021/03/13 04:20:46;;;;;;;9.15;3.35;;;5.40;99.50;;;;;;5020006;28;20492;-79
2021/03/13 04:23:13;;;;;;;6.78;4.03;;;5.30;99.80;;;;;;5015772;28;20133;-79
2021/03/13 04:25:40;;;;;;;9.50;4.15;;;5.40;99.70;;;;;;5018435;28;20030;-79
2021/03/13 04:28:06;;;;;;;7.72;3.80;;;5.40;99.80;;;;;;5021002;28;20572;-79
2021/03/13 04:30:32;;;;;;;14.95;4.72;;;5.40;99.80;;;;;;5040149;28;20038;-79
2021/03/13 04:33:00;;;;;;;8.52;4.80;;;5.40;99.80;;;;;;5017225;28;20040;-79
2021/03/13 04:35:28;;;;;;;5.57;3.05;;;5.40;99.80;;;;;;5021411;28;20497;-79
2021/03/13 04:37:55;;;;;;;8.90;3.97;;;5.40;99.90;;;;;;5023462;28;20465;-79
2021/03/13 04:40:22;;;;;;;6.93;4.57;;;5.40;99.90;;;;;;5032113;28;20040;-79
2021/03/13 04:42:49;;;;;;;8.85;4.35;;;5.40;99.90;;;;;;5024110;28;20112;-79
2021/03/13 04:45:15;;;;;;;8.32;4.57;;;5.50;99.90;;;;;;5033165;28;20037;-79
2021/03/13 04:47:44;;;;;;;8.88;4.22;;;5.50;99.90;;;;;;5024811;28;20121;-79
2021/03/13 04:50:12;;;;;;;7.50;4.30;;;5.50;99.90;;;;;;5030046;28;20056;-79
2021/03/13 04:52:38;;;;;;;10.80;4.45;;;5.50;99.90;;;;;;5019172;28;20342;-79
2021/03/13 04:55:04;;;;;;;7.35;4.55;;;5.60;99.90;;;;;;5014268;28;20120;-79
2021/03/13 04:57:30;;;;;;;7.07;4.05;;;5.50;99.90;;;;;;5022768;28;20132;-79
2021/03/13 04:59:57;;;;;;;7.90;4.38;;;5.60;99.90;;;;;;5032713;28;20067;-79
2021/03/13 05:02:23;;;;;;;6.18;4.32;;;5.60;99.90;;;;;;5016681;28;20450;-79
2021/03/13 05:04:49;;;;;;;6.13;4.50;;;5.60;99.90;;;;;;5033011;28;20069;-79
2021/03/13 05:07:15;;;;;;;8.48;4.68;;;5.60;99.90;;;;;;5030551;28;20057;-79
2021/03/13 05:09:41;;;;;;;8.65;5.15;;;5.60;99.90;;;;;;5021814;28;20120;-80
2021/03/13 05:12:08;;;;;;;5.00;2.85;;;5.60;99.90;;;;;;5021139;28;20044;-80
2021/03/13 05:14:34;;;;;;;8.18;4.40;;;5.70;99.90;;;;;;5025951;28;20038;-80
2021/03/13 05:17:01;;;;;;;5.68;3.85;;;5.70;99.90;;;;;;5022935;28;20120;-80
2021/03/13 05:19:27;;;;;;;10.45;4.80;;;5.70;99.90;;;;;;5025348;28;20387;-79
2021/03/13 05:21:54;;;;;;;5.20;3.08;;;5.70;99.90;;;;;;5041265;28;20103;-79
2021/03/13 05:24:20;;;;;;;10.25;5.22;;;5.70;99.90;;;;;;5022674;28;20038;-79
2021/03/13 05:26:46;;;;;;;6.28;3.92;;;5.70;99.90;;;;;;5026289;28;20091;-80
2021/03/13 05:29:11;;;;;;;9.75;4.65;;;5.70;99.90;;;;;;5015397;28;20062;-80
2021/03/13 05:31:37;;;;;;;9.35;4.97;;;5.80;99.90;;;;;;5016328;28;20037;-80
2021/03/13 05:34:03;;;;;;;6.05;2.80;;;5.70;99.90;;;;;;5018039;28;20044;-80
2021/03/13 05:36:29;;;;;;;8.07;3.95;;;5.80;99.90;;;;;;5047366;28;20048;-80
2021/03/13 05:38:55;;;;;;;3.75;3.03;;;5.80;99.90;;;;;;5046496;28;20392;-80
2021/03/13 05:41:21;;;;;;;7.00;3.65;;;5.80;99.90;;;;;;5024202;28;20081;-80
2021/03/13 05:43:47;;;;;;;4.63;2.60;;;5.90;99.90;;;;;;5020820;28;20052;-80
2021/03/13 05:46:15;;;;;;;8.13;3.90;;;5.90;99.90;;;;;;5032382;28;20048;-80
2021/03/13 05:48:44;;;;;;;8.05;4.20;;;5.90;99.90;;;;;;5030247;28;20069;-80
2021/03/13 05:51:12;;;;;;;9.73;3.80;;;6.00;99.90;;;;;;5043314;28;20077;-80
2021/03/13 05:53:41;;;;;;;7.93;3.42;;;6.00;99.90;;;;;;5028042;28;20450;-80
2021/03/13 05:56:09;;;;;;;10.68;4.40;;;5.90;99.90;;;;;;5020551;28;20037;-80
2021/03/13 05:58:39;;;;;;;7.03;3.78;;;6.00;99.90;;;;;;5030012;28;20469;-80
2021/03/13 06:01:06;;;;;;;8.52;4.30;;;6.00;99.90;;;;;;5026454;28;20063;-80
2021/03/13 06:03:33;;;;;;;5.13;3.38;;;6.10;99.90;;;;;;5039668;28;20038;-80
2021/03/13 06:06:05;;;;;;;7.50;4.10;;;6.10;99.90;;;;;;5043860;28;20221;-80
2021/03/13 06:08:31;;;;;;;7.68;3.60;;;6.10;99.90;;;;;;5032628;28;20724;-80
2021/03/13 06:10:57;;;;;;;9.27;3.10;;;6.10;99.90;;;;;;5030047;28;20049;-80
2021/03/13 06:13:23;;;;;;;10.65;4.13;;;6.00;99.90;;;;;;5015605;28;20045;-80
2021/03/13 06:15:54;;;;;;;7.15;2.90;;;6.20;99.90;;;;;;5038218;28;20058;-80
2021/03/13 06:18:20;;;;;;;9.75;3.42;;;6.20;99.90;;;;;;5035206;28;20076;-80
2021/03/13 06:20:46;;;;;;;6.75;3.15;;;6.20;99.90;;;;;;5025622;28;20085;-80
2021/03/13 06:23:14;;;;;;;7.15;3.58;;;6.20;99.90;;;;;;5034088;28;20037;-80
2021/03/13 06:25:41;;;;;;;8.95;3.25;;;6.20;99.90;;;;;;5031501;28;20056;-79
2021/03/13 06:28:22;;;;;;;4.57;2.03;;;6.30;99.90;;;;;;5020665;28;20505;-79
2021/03/13 06:30:50;;;;;;;9.32;3.40;;;6.30;99.90;;;;;;5022541;28;20037;-80
2021/03/13 06:33:23;;;;;;;6.47;2.47;;;6.30;99.90;;;;;;5027413;28;20041;-80
2021/03/13 06:35:50;;;;;;;8.18;3.15;;;6.30;99.90;;;;;;5026423;28;20411;-79
2021/03/13 06:38:20;;;;;;;5.70;2.17;;;6.30;99.90;;;;;;5020090;28;20117;-79
2021/03/13 06:40:48;;;;;;;5.90;2.85;;;6.30;99.90;;;;;;5022364;28;20077;-79
2021/03/13 06:43:26;;;;;;;4.50;3.17;;;6.30;99.90;;;;;;5045700;28;20076;-79
2021/03/13 06:46:01;;;;;;;5.28;2.88;;;6.30;99.90;;;;;;5020334;28;20042;-79
2021/03/13 06:48:34;;;;;;;6.63;2.03;;;6.30;99.90;;;;;;5023284;28;20046;-79
2021/03/13 06:51:39;;;;;;;5.72;2.72;;;6.30;99.90;;;;;;5023508;28;20143;-79
2021/03/13 06:54:08;;;;;;;4.07;1.90;;;6.30;99.90;;;;;;5013159;28;20528;-79
2021/03/13 06:56:39;;;;;;;4.85;1.63;;;6.40;99.90;;;;;;5024637;28;20026;-79
2021/03/13 06:59:24;;;;;;;2.50;0.47;;;6.40;99.90;;;;;;5024948;28;20057;-79
2021/03/13 07:02:05;;;;;;;5.88;0.73;;;6.20;98.70;;;;;;5026032;28;20055;-79
2021/03/13 07:04:42;;;;;;;4.60;0.70;;;5.80;98.20;;;;;;5019691;28;20033;-79
2021/03/13 07:07:10;;;;;;;4.22;0.73;;;5.50;98.20;;;;;;5018014;28;20033;-79
2021/03/13 07:09:56;;;;;;;1.73;0.30;;;5.30;98.60;;;;;;5024530;28;20052;-79
2021/03/13 07:12:24;;;;;;;2.88;0.70;;;5.20;98.60;;;;;;5024511;28;20089;-79
2021/03/13 07:14:51;;;;;;;5.45;1.00;;;5.10;98.30;;;;;;5017527;28;20397;-79
2021/03/13 07:17:18;;;;;;;4.82;0.90;;;5.10;98.70;;;;;;5017571;28;20112;-79
2021/03/13 07:19:44;;;;;;;4.03;0.50;;;5.10;98.80;;;;;;5018621;28;20045;-79
2021/03/13 07:22:12;;;;;;;3.03;0.40;;;5.10;99.00;;;;;;5044358;28;20060;-79
2021/03/13 07:24:43;;;;;;;5.47;0.60;;;5.10;99.00;;;;;;5018027;28;20378;-79
2021/03/13 07:27:10;;;;;;;5.68;0.82;;;5.10;99.10;;;;;;5021399;28;20464;-79
2021/03/13 07:29:39;;;;;;;4.53;0.90;;;5.20;99.10;;;;;;5019940;28;20133;-79
2021/03/13 07:32:08;;;;;;;4.22;0.80;;;5.20;99.10;;;;;;5026202;28;20041;-79
2021/03/13 07:34:39;;;;;;;6.05;0.75;;;5.20;99.00;;;;;;5028527;28;20041;-78
2021/03/13 07:37:08;;;;;;;7.28;0.63;;;5.20;99.30;;;;;;5033494;28;20042;-78
2021/03/13 07:39:37;;;;;;;5.15;0.90;;;5.40;98.90;;;;;;5024641;28;20392;-78
2021/03/13 07:42:05;;;;;;;8.07;1.17;;;5.50;98.80;;;;;;5035059;28;20041;-78
2021/03/13 07:44:31;;;;;;;7.30;1.17;;;5.60;98.60;;;;;;5014684;28;20040;-78
2021/03/13 07:47:02;;;;;;;5.60;0.80;;;5.60;98.60;;;;;;5028366;28;20037;-79
2021/03/13 07:49:30;;;;;;;10.63;1.25;;;5.80;98.70;;;;;;5033209;28;20155;-79
2021/03/13 07:51:59;;;;;;;8.52;1.70;;;6.10;98.30;;;;;;5028629;28;20068;-79
2021/03/13 07:54:26;;;;;;;10.60;1.70;;;6.30;98.30;;;;;;5030867;28;20057;-79
2021/03/13 07:56:52;;;;;;;8.77;1.45;;;6.40;97.40;;;;;;5029238;28;20097;-79
2021/03/13 07:59:44;;;;;;;6.93;1.05;;;6.40;96.80;;;;;;5044943;28;20049;-79
2021/03/13 08:02:31;;;;;;;14.32;2.67;;;6.40;96.70;;;;;;5048461;28;20037;-79
2021/03/13 08:05:09;;;;;;;15.40;1.63;;;6.40;96.90;;;;;;5029850;28;20049;-79
2021/03/13 08:07:54;;;;;;;11.45;1.50;;;6.40;96.80;;;;;;5020883;28;20104;-79
2021/03/13 08:10:40;;;;;;;9.20;1.88;;;6.40;95.20;;;;;;5020110;28;20397;-79
2021/03/13 08:13:10;;;;;;;14.23;1.67;;;6.50;96.90;;;;;;5029367;28;20508;-79
2021/03/13 08:15:44;;;;;;;14.90;1.98;;;6.60;97.00;;;;;;5016838;28;20465;-79
2021/03/13 08:18:13;;;;;;;11.88;1.92;;;6.70;96.40;;;;;;5028928;28;20034;-79
2021/03/13 08:20:39;;;;;;;11.82;2.42;;;6.70;96.20;;;;;;5028312;28;20144;-80
2021/03/13 08:23:11;;;;;;;14.50;2.58;;;6.70;96.30;;;;;;5029527;28;20044;-79
2021/03/13 08:25:58;;;;;;;11.35;1.90;;;6.70;96.00;;;;;;5017828;28;20030;-79
2021/03/13 08:28:49;;;;;;;20.98;3.05;;;6.80;95.90;;;;;;5035000;28;20176;-79
2021/03/13 08:31:33;;;;;;;15.43;1.92;;;6.80;94.70;;;;;;5028685;28;20062;-80
2021/03/13 08:34:19;;;;;;;14.40;2.72;;;6.80;95.20;;;;;;5032378;28;20049;-79
2021/03/13 08:36:49;;;;;;;15.75;2.40;;;6.90;95.70;;;;;;5020538;28;20052;-79
2021/03/13 08:39:25;;;;;;;11.93;2.22;;;6.90;95.70;;;;;;5020753;28;20507;-79
2021/03/13 08:41:55;;;;;;;17.48;2.63;;;6.90;95.70;;;;;;5013432;28;20057;-79
2021/03/13 08:44:34;;;;;;;16.52;2.58;;;7.00;94.40;;;;;;5016330;28;20038;-79
2021/03/13 08:47:07;;;;;;;19.35;2.97;;;7.00;94.40;;;;;;5015700;28;20065;-79
2021/03/13 08:49:34;;;;;;;18.38;2.42;;;7.10;94.40;;;;;;5033430;28;20038;-78
2021/03/13 08:52:09;;;;;;;16.90;2.85;;;7.20;95.20;;;;;;5019030;28;20046;-79
2021/03/13 08:54:41;;;;;;;;;;;7.20;95.10;;;;;;5014136;28;20490;-79
2021/03/13 08:57:07;;;;;;;16.23;2.50;;;7.40;94.00;;;;;;5027772;28;20036;-79
2021/03/13 08:59:34;;;;;;;12.43;2.50;;;7.50;95.50;;;;;;5024679;28;20044;-78
2021/03/13 09:02:18;;;;;;;13.80;2.80;;;7.60;94.90;;;;;;5027050;28;20450;-78
2021/03/13 09:04:52;;;;;;;17.98;2.50;;;7.60;95.00;;;;;;5040930;28;20130;-79
2021/03/13 09:07:23;;;;;;;12.63;1.92;;;7.60;93.90;;;;;;5027747;28;20042;-78
2021/03/13 09:09:50;;;;;;;12.77;1.85;;;7.50;93.80;;;;;;5017873;28;20095;-79
2021/03/13 09:12:18;;;;;;;11.55;2.03;;;7.30;93.80;;;;;;5030637;28;20076;-80
2021/03/13 09:14:51;;;;;;;10.73;1.77;;;7.00;93.70;;;;;;5033134;28;20404;-80
2021/03/13 09:17:19;;;;;;;10.25;1.80;;;6.70;94.40;;;;;;5030120;28;20049;-79
2021/03/13 09:19:46;;;;;;;9.82;1.70;;;6.60;95.00;;;;;;5021697;28;20403;-79
2021/03/13 09:22:20;;;;;;;11.93;1.85;;;6.50;95.30;;;;;;5033735;28;20045;-80
2021/03/13 09:25:01;;;;;;;12.60;1.80;;;6.50;95.30;;;;;;5006813;28;20041;-80
2021/03/13 09:27:29;;;;;;;17.60;2.60;;;6.60;94.40;;;;;;5033808;28;20858;-80
2021/03/13 09:29:56;;;;;;;16.08;2.10;;;6.80;94.60;;;;;;5033985;28;20053;-80
2021/03/13 09:32:24;;;;;;;13.45;2.70;;;6.90;94.50;;;;;;5034329;28;20055;-80
2021/03/13 09:34:52;;;;;;;17.52;2.95;;;7.10;94.80;;;;;;5027556;28;20354;-80
2021/03/13 09:37:23;;;;;;;16.08;2.63;;;7.40;93.30;;;;;;5019122;28;20042;-80
2021/03/13 09:39:51;;;;;;;21.27;2.53;;;7.60;92.40;;;;;;5017764;28;20442;-79
2021/03/13 09:42:27;;;;;;;17.23;3.28;;;7.80;92.40;;;;;;5022219;28;20042;-80
2021/03/13 09:44:55;;;;;;;15.77;3.15;;;8.10;91.90;;;;;;5020102;28;20064;-79
2021/03/13 09:47:42;;;;;;;12.75;2.38;;;8.30;90.40;;;;;;5029021;28;20170;-81
2021/03/13 09:50:09;;;;;;;14.50;2.50;;;8.30;88.80;;;;;;5022521;28;20507;-79
2021/03/13 09:52:46;;;;;;;14.95;2.38;;;8.40;88.30;;;;;;5034531;28;20041;-79
2021/03/13 09:55:14;;;;;;;15.15;2.38;;;8.40;88.40;;;;;;5031115;28;20056;-78
2021/03/13 09:57:49;;;;;;;18.55;2.63;;;8.40;87.30;;;;;;5034920;28;20464;-77
2021/03/13 10:00:23;;;;;;;;;;;8.20;86.10;;;;;;5027837;28;20041;-77
2021/03/13 10:02:50;;;;;;;11.32;2.00;;;8.10;81.20;;;;;;5040659;28;19933;-76
2021/03/13 10:05:18;;;;;;;17.17;2.42;;;8.20;88.40;;;;;;5029148;28;20096;-76
2021/03/13 10:07:46;;;;;;;9.07;1.77;;;8.40;85.90;;;;;;5033654;28;20461;-76
2021/03/13 10:10:17;;;;;;;12.57;2.30;;;8.40;87.10;;;;;;5028864;28;20045;-75
2021/03/13 10:12:44;;;;;;;5.03;1.30;;;8.20;87.20;;;;;;5015023;28;20038;-76
2021/03/13 10:15:19;;;;;;;11.10;1.35;;;7.70;89.80;;;;;;5020996;28;20049;-75
2021/03/13 10:18:01;;;;;;;7.50;1.63;;;7.30;91.10;;;;;;5027962;28;20038;-75
2021/03/13 10:20:34;;;;;;;12.10;1.45;;;7.00;90.70;;;;;;5013300;28;20065;-76
2021/03/13 10:23:09;;;;;;;13.35;2.30;;;6.90;91.10;;;;;;5014882;28;20052;-77
2021/03/13 10:25:36;;;;;;;11.48;2.05;;;6.80;92.20;;;;;;5038454;28;20087;-75
2021/03/13 10:28:04;;;;;;;13.25;2.72;;;6.90;92.40;;;;;;5033193;28;20394;-77
2021/03/13 10:30:30;;;;;;;15.27;2.50;;;7.10;92.80;;;;;;5034601;28;20038;-76
2021/03/13 10:32:56;;;;;;;11.15;2.25;;;7.30;93.20;;;;;;5027321;28;20111;-77
2021/03/13 10:35:27;;;;;;;14.68;2.88;;;7.60;92.60;;;;;;5030633;28;20052;-76
2021/03/13 10:37:58;;;;;;;16.45;2.42;;;7.70;92.60;;;;;;5017896;28;20430;-75
2021/03/13 10:40:42;;;;;;;18.92;5.00;;;7.90;92.20;;;;;;5013549;28;20381;-75
2021/03/13 10:43:19;;;;;;;15.20;3.37;;;8.00;91.30;;;;;;5014637;28;20042;-76
2021/03/13 10:46:01;;;;;;;16.73;3.60;;;8.10;91.50;;;;;;5017130;28;20033;-77
2021/03/13 10:48:34;;;;;;;17.90;3.15;;;7.90;90.90;;;;;;5014401;28;20073;-75
2021/03/13 10:51:01;;;;;;;15.50;2.60;;;7.80;91.00;;;;;;5032074;28;20116;-75
2021/03/13 10:53:38;;;;;;;13.18;2.08;;;7.60;92.30;;;;;;5031932;28;20099;-75
2021/03/13 10:56:06;;;;;;;14.18;2.35;;;7.20;91.60;;;;;;5016082;28;20045;-74
2021/03/13 10:58:37;;;;;;;7.97;1.15;;;6.90;93.00;;;;;;5014234;28;20034;-76
2021/03/13 11:01:05;;;;;;;7.80;0.98;;;6.60;93.20;;;;;;5019935;28;20050;-76
2021/03/13 11:03:31;;;;;;;10.77;1.48;;;6.20;93.20;;;;;;5025051;28;20075;-77
2021/03/13 11:05:59;;;;;;;8.25;0.90;;;5.80;94.10;;;;;;5025145;28;20042;-76
2021/03/13 11:08:26;;;;;;;9.27;1.55;;;5.50;94.60;;;;;;5039065;28;20045;-76
2021/03/13 11:10:53;;;;;;;5.78;1.02;;;5.20;95.30;;;;;;5034349;28;20128;-78
2021/03/13 11:13:19;;;;;;;9.55;1.02;;;5.20;95.60;;;;;;5025754;28;20401;-78
2021/03/13 11:15:46;;;;;;;7.88;1.48;;;5.20;96.30;;;;;;5025760;28;20472;-77
2021/03/13 11:18:12;;;;;;;10.18;1.25;;;5.40;96.80;;;;;;5027530;28;20065;-78
2021/03/13 11:20:38;;;;;;;11.07;1.73;;;5.50;96.70;;;;;;5019823;28;20049;-77
2021/03/13 11:23:05;;;;;;;14.15;1.80;;;5.80;96.90;;;;;;5022800;28;20042;-76
2021/03/13 11:25:30;;;;;;;14.90;2.47;;;6.00;97.20;;;;;;5011500;28;20115;-77
2021/03/13 11:27:56;;;;;;;17.05;2.53;;;6.20;97.00;;;;;;5025379;28;20049;-76
2021/03/13 11:30:24;;;;;;;15.70;2.15;;;6.30;96.50;;;;;;5028013;28;20061;-78
2021/03/13 11:32:49;;;;;;;17.25;2.72;;;6.50;95.50;;;;;;5029413;28;20045;-77
2021/03/13 11:35:18;;;;;;;18.75;3.47;;;6.50;95.10;;;;;;5018485;28;20033;-76
2021/03/13 11:37:45;;;;;;;13.70;2.00;;;6.70;95.40;;;;;;5023738;28;20049;-76
2021/03/13 11:40:17;;;;;;;15.68;2.58;;;6.90;94.60;;;;;;5022179;28;20056;-76
2021/03/13 11:42:44;;;;;;;14.65;1.95;;;7.00;94.60;;;;;;5030322;28;20124;-76
2021/03/13 11:45:12;;;;;;;11.27;1.90;;;7.10;94.30;;;;;;5026195;28;20121;-76
2021/03/13 11:47:39;;;;;;;18.55;2.67;;;7.10;93.00;;;;;;5012809;28;20041;-77
2021/03/13 11:50:11;;;;;;;20.58;3.25;;;7.00;92.80;;;;;;5021649;28;20041;-76
2021/03/13 11:52:37;;;;;;;12.65;2.15;;;6.90;93.10;;;;;;5013340;28;20488;-76
2021/03/13 11:55:05;;;;;;;10.82;2.00;;;6.80;92.50;;;;;;5024099;28;20103;-76
2021/03/13 11:57:30;;;;;;;7.30;1.20;;;6.70;92.70;;;;;;5031923;28;20493;-76
2021/03/13 11:59:56;;;;;;;4.15;0.47;;;6.40;92.80;;;;;;5016266;28;20103;-77
2021/03/13 12:02:22;;;;;;;6.05;1.30;;;6.00;93.20;;;;;;5045703;28;20057;-78
2021/03/13 12:04:48;;;;;;;3.40;0.50;;;5.60;94.20;;;;;;5028589;28;20046;-78
2021/03/13 12:07:14;;;;;;;6.53;0.90;;;5.30;95.10;;;;;;5030241;28;20137;-77
2021/03/13 12:09:40;;;;;;;6.15;0.55;;;5.10;95.70;;;;;;5028656;28;20456;-76
2021/03/13 12:12:07;;;;;;;6.80;1.52;;;5.00;96.30;;;;;;5029894;28;20088;-78
2021/03/13 12:14:34;;;;;;;8.93;0.90;;;5.00;96.90;;;;;;5024123;28;20044;-77
2021/03/13 12:17:01;;;;;;;11.70;2.17;;;5.00;97.10;;;;;;5044158;28;20068;-77
2021/03/13 12:19:27;;;;;;;6.75;1.35;;;5.00;96.80;;;;;;5013966;28;20056;-77
2021/03/13 12:21:53;;;;;;;12.05;1.23;;;5.00;96.60;;;;;;5023968;28;20116;-77
2021/03/13 12:24:19;;;;;;;8.07;1.25;;;5.10;96.50;;;;;;5010660;28;20121;-77
2021/03/13 12:26:45;;;;;;;9.23;1.73;;;5.20;96.80;;;;;;5017184;28;20050;-77
2021/03/13 12:29:11;;;;;;;9.63;1.25;;;5.30;96.60;;;;;;5013371;28;20050;-78
2021/03/13 12:31:40;;;;;;;13.55;2.40;;;5.30;96.60;;;;;;5026557;28;20045;-78
2021/03/13 12:34:05;;;;;;;11.55;2.38;;;5.30;96.40;;;;;;5014053;28;20044;-78
2021/03/13 12:36:32;;;;;;;9.75;2.10;;;5.30;96.70;;;;;;5024162;28;20044;-77
2021/03/13 12:38:58;;;;;;;16.83;2.50;;;5.40;97.00;;;;;;5028779;28;20045;-77
2021/03/13 12:41:24;;;;;;;13.63;2.15;;;5.40;97.20;;;;;;5016546;28;20057;-77
2021/03/13 12:43:50;;;;;;;17.63;2.40;;;5.40;97.30;;;;;;5021362;28;20062;-77
2021/03/13 12:46:16;;;;;;;17.65;2.60;;;5.60;97.30;;;;;;5026432;28;20101;-76
2021/03/13 12:48:46;;;;;;;15.65;2.10;;;5.70;97.00;;;;;;5028709;28;20053;-76
2021/03/13 12:51:14;;;;;;;10.70;1.33;;;5.90;96.90;;;;;;5016740;28;20038;-76
2021/03/13 12:53:41;;;;;;;10.60;1.77;;;5.90;96.70;;;;;;5023944;28;20038;-77
2021/03/13 12:56:07;;;;;;;14.00;1.95;;;5.90;96.70;;;;;;5015427;28;20052;-76
2021/03/13 12:58:33;;;;;;;12.57;2.63;;;6.10;97.10;;;;;;5016590;28;20045;-76
2021/03/13 13:00:58;;;;;;;16.00;3.03;;;6.30;96.70;;;;;;5015215;28;20065;-76
2021/03/13 13:03:24;;;;;;;10.75;1.98;;;6.60;96.40;;;;;;5014834;28;20087;-77